PSLKS LTFM-OJAI
Flight info
| Callsign | PSLKS |
|---|---|
| Flight time | 1h 41m |
| Altitude | 45000 |
| Route | RATVU UT35 AYT UM855 TOMBI DCT IDAKU L35 PIKOG L609 VOLFO N134 RALNA |
| Aircraft | C700/M-SBDGHM1RWXY/LB2 |
Departure
| Time | 2026-05-05 00:19 |
|---|---|
| Airport | İstanbul Airport (LTFM) |
Arrival
| Time | 2026-05-05 02:01 |
|---|---|
| Airport | Queen Alia International Airport (OJAI) |
| Time | Latitude | Longitude | Altitude | Speed | Heading |
|---|---|---|---|---|---|
| 2026-05-05 00:11 | 41.26631 | 28.71990 | 328 ft | 0 kts | 359° |
| 2026-05-05 00:16 | 41.26638 | 28.71990 | 328 ft | 5 kts | 359° |
| 2026-05-05 00:17 | 41.26684 | 28.71993 | 328 ft | 9 kts | 11° |
| 2026-05-05 00:17 | 41.26706 | 28.72062 | 328 ft | 10 kts | 88° |
| 2026-05-05 00:17 | 41.26708 | 28.72169 | 327 ft | 13 kts | 90° |
| 2026-05-05 00:17 | 41.26708 | 28.72303 | 328 ft | 16 kts | 89° |
| 2026-05-05 00:18 | 41.26709 | 28.72461 | 328 ft | 18 kts | 89° |
| 2026-05-05 00:18 | 41.26711 | 28.72578 | 326 ft | 20 kts | 88° |
| 2026-05-05 00:18 | 41.26714 | 28.72734 | 327 ft | 15 kts | 89° |
| 2026-05-05 00:18 | 41.26772 | 28.72764 | 328 ft | 22 kts | 359° |
| 2026-05-05 00:19 | 41.27273 | 28.72750 | 325 ft | 117 kts | 359° |
| 2026-05-05 00:19 | 41.28325 | 28.72719 | 547 ft | 174 kts | 359° |
| 2026-05-05 00:19 | 41.29621 | 28.72716 | 1481 ft | 200 kts | 359° |
| 2026-05-05 00:19 | 41.31085 | 28.72722 | 2751 ft | 206 kts | 359° |
| 2026-05-05 00:20 | 41.32550 | 28.72680 | 4171 ft | 222 kts | 356° |
| 2026-05-05 00:20 | 41.34181 | 28.72457 | 5222 ft | 248 kts | 343° |
| 2026-05-05 00:20 | 41.35763 | 28.71442 | 6649 ft | 255 kts | 327° |
| 2026-05-05 00:20 | 41.37065 | 28.69804 | 8152 ft | 265 kts | 309° |
| 2026-05-05 00:21 | 41.37910 | 28.67609 | 9584 ft | 276 kts | 289° |
| 2026-05-05 00:21 | 41.38167 | 28.65012 | 10897 ft | 298 kts | 270° |
| 2026-05-05 00:21 | 41.37754 | 28.62187 | 12010 ft | 322 kts | 252° |
| 2026-05-05 00:21 | 41.36729 | 28.59508 | 13544 ft | 331 kts | 236° |
| 2026-05-05 00:22 | 41.35105 | 28.57272 | 14898 ft | 342 kts | 218° |
| 2026-05-05 00:22 | 41.32994 | 28.55752 | 16220 ft | 351 kts | 199° |
| 2026-05-05 00:22 | 41.30580 | 28.55162 | 17484 ft | 357 kts | 180° |
| 2026-05-05 00:22 | 41.28076 | 28.55322 | 18648 ft | 364 kts | 169° |
| 2026-05-05 00:23 | 41.25615 | 28.56190 | 19730 ft | 369 kts | 157° |
| 2026-05-05 00:23 | 41.23323 | 28.57737 | 20684 ft | 373 kts | 144° |
| 2026-05-05 00:23 | 41.21305 | 28.59914 | 21624 ft | 376 kts | 133° |
| 2026-05-05 00:23 | 41.19420 | 28.62358 | 22521 ft | 382 kts | 132° |
| 2026-05-05 00:24 | 41.17487 | 28.64843 | 23400 ft | 389 kts | 133° |
| 2026-05-05 00:24 | 41.15520 | 28.67346 | 24261 ft | 395 kts | 133° |
| 2026-05-05 00:24 | 41.13528 | 28.69897 | 25091 ft | 400 kts | 131° |
| 2026-05-05 00:24 | 41.11775 | 28.72776 | 25894 ft | 401 kts | 120° |
| 2026-05-05 00:25 | 41.10266 | 28.75874 | 26658 ft | 406 kts | 119° |
| 2026-05-05 00:25 | 41.08722 | 28.79026 | 27401 ft | 411 kts | 119° |
| 2026-05-05 00:25 | 41.07144 | 28.82212 | 28137 ft | 416 kts | 120° |
| 2026-05-05 00:25 | 41.05291 | 28.85219 | 28819 ft | 426 kts | 131° |
| 2026-05-05 00:26 | 41.03004 | 28.87769 | 29499 ft | 435 kts | 142° |
| 2026-05-05 00:26 | 41.00347 | 28.89747 | 30140 ft | 443 kts | 154° |
| 2026-05-05 00:26 | 40.97407 | 28.91045 | 30767 ft | 449 kts | 166° |
| 2026-05-05 00:26 | 40.94282 | 28.91578 | 31367 ft | 455 kts | 178° |
| 2026-05-05 00:27 | 40.91148 | 28.91359 | 31956 ft | 459 kts | 185° |
| 2026-05-05 00:27 | 40.87956 | 28.90976 | 32495 ft | 462 kts | 182° |
| 2026-05-05 00:27 | 40.84726 | 28.91103 | 33019 ft | 465 kts | 175° |
| 2026-05-05 00:27 | 40.81494 | 28.91375 | 33645 ft | 464 kts | 175° |
| 2026-05-05 00:28 | 40.78274 | 28.91624 | 34330 ft | 462 kts | 176° |
| 2026-05-05 00:28 | 40.75066 | 28.91876 | 34943 ft | 461 kts | 175° |
| 2026-05-05 00:28 | 40.71859 | 28.92140 | 35538 ft | 460 kts | 175° |
| 2026-05-05 00:28 | 40.68667 | 28.92401 | 36114 ft | 459 kts | 176° |
| 2026-05-05 00:29 | 40.65480 | 28.92654 | 36634 ft | 459 kts | 176° |
| 2026-05-05 00:29 | 40.62296 | 28.92907 | 37158 ft | 457 kts | 176° |
| 2026-05-05 00:29 | 40.59143 | 28.93189 | 37794 ft | 451 kts | 173° |
| 2026-05-05 00:29 | 40.56079 | 28.93982 | 38236 ft | 449 kts | 163° |
| 2026-05-05 00:30 | 40.53168 | 28.95443 | 38572 ft | 448 kts | 153° |
| 2026-05-05 00:30 | 40.50507 | 28.97466 | 38907 ft | 447 kts | 146° |
| 2026-05-05 00:30 | 40.47907 | 28.99705 | 39232 ft | 447 kts | 146° |
| 2026-05-05 00:30 | 40.45292 | 29.01936 | 39540 ft | 448 kts | 146° |
| 2026-05-05 00:31 | 40.42676 | 29.04157 | 39849 ft | 448 kts | 146° |
| 2026-05-05 00:31 | 40.40057 | 29.06382 | 40153 ft | 448 kts | 146° |
| 2026-05-05 00:31 | 40.37436 | 29.08617 | 40464 ft | 448 kts | 146° |
| 2026-05-05 00:31 | 40.34825 | 29.10837 | 40752 ft | 449 kts | 146° |
| 2026-05-05 00:32 | 40.32196 | 29.13065 | 41047 ft | 449 kts | 147° |
| 2026-05-05 00:32 | 40.29566 | 29.15291 | 41352 ft | 449 kts | 147° |
| 2026-05-05 00:32 | 40.26947 | 29.17512 | 41629 ft | 450 kts | 147° |
| 2026-05-05 00:32 | 40.24314 | 29.19744 | 41928 ft | 450 kts | 147° |
| 2026-05-05 00:33 | 40.21692 | 29.21961 | 42218 ft | 450 kts | 147° |
| 2026-05-05 00:33 | 40.19030 | 29.24128 | 42496 ft | 450 kts | 152° |
| 2026-05-05 00:33 | 40.16161 | 29.25750 | 42787 ft | 449 kts | 160° |
| 2026-05-05 00:33 | 40.13251 | 29.27114 | 43056 ft | 449 kts | 160° |
| 2026-05-05 00:34 | 40.10311 | 29.28509 | 43325 ft | 450 kts | 160° |
| 2026-05-05 00:34 | 40.07374 | 29.29916 | 43593 ft | 450 kts | 160° |
| 2026-05-05 00:34 | 40.04432 | 29.31317 | 43839 ft | 450 kts | 160° |
| 2026-05-05 00:34 | 40.01491 | 29.32707 | 44085 ft | 449 kts | 160° |
| 2026-05-05 00:35 | 39.98551 | 29.34098 | 44313 ft | 449 kts | 160° |
| 2026-05-05 00:35 | 39.95611 | 29.35494 | 44519 ft | 450 kts | 161° |
| 2026-05-05 00:35 | 39.92667 | 29.36888 | 44731 ft | 450 kts | 161° |
| 2026-05-05 00:35 | 39.89741 | 29.38330 | 44924 ft | 450 kts | 158° |
| 2026-05-05 00:36 | 39.86856 | 29.39930 | 45016 ft | 453 kts | 157° |
| 2026-05-05 00:36 | 39.80996 | 29.43161 | 45024 ft | 462 kts | 158° |
| 2026-05-05 00:37 | 39.75022 | 29.46437 | 45035 ft | 470 kts | 158° |
| 2026-05-05 00:37 | 39.68975 | 29.49755 | 45036 ft | 478 kts | 158° |
| 2026-05-05 00:38 | 39.62773 | 29.53086 | 45037 ft | 486 kts | 160° |
| 2026-05-05 00:38 | 39.56408 | 29.56266 | 45035 ft | 493 kts | 159° |
| 2026-05-05 00:39 | 39.49959 | 29.59493 | 45003 ft | 500 kts | 160° |
| 2026-05-05 00:39 | 39.43459 | 29.62725 | 45005 ft | 499 kts | 159° |
| 2026-05-05 00:40 | 39.37040 | 29.65921 | 45001 ft | 495 kts | 160° |
| 2026-05-05 00:40 | 39.30632 | 29.69099 | 44995 ft | 492 kts | 159° |
| 2026-05-05 00:41 | 39.24235 | 29.72269 | 44991 ft | 492 kts | 160° |
| 2026-05-05 00:41 | 39.17813 | 29.75442 | 44994 ft | 495 kts | 160° |
| 2026-05-05 00:42 | 39.11368 | 29.78622 | 44996 ft | 497 kts | 160° |
| 2026-05-05 00:42 | 39.04892 | 29.81811 | 44996 ft | 499 kts | 160° |
| 2026-05-05 00:43 | 38.98453 | 29.84975 | 45000 ft | 498 kts | 160° |
| 2026-05-05 00:43 | 38.91989 | 29.88145 | 44995 ft | 496 kts | 160° |
| 2026-05-05 00:44 | 38.85530 | 29.91285 | 44996 ft | 495 kts | 160° |
| 2026-05-05 00:44 | 38.79070 | 29.94321 | 44995 ft | 494 kts | 160° |
| 2026-05-05 00:45 | 38.72638 | 29.97397 | 44991 ft | 493 kts | 160° |
| 2026-05-05 00:45 | 38.66237 | 30.00418 | 44988 ft | 492 kts | 160° |
| 2026-05-05 00:46 | 38.59806 | 30.03467 | 44991 ft | 493 kts | 160° |
| 2026-05-05 00:46 | 38.53352 | 30.06511 | 44994 ft | 494 kts | 160° |
| 2026-05-05 00:47 | 38.46889 | 30.09558 | 44995 ft | 495 kts | 160° |
| 2026-05-05 00:47 | 38.40416 | 30.12602 | 44997 ft | 495 kts | 161° |
| 2026-05-05 00:48 | 38.33984 | 30.15621 | 44997 ft | 496 kts | 161° |
| 2026-05-05 00:48 | 38.27488 | 30.18613 | 44995 ft | 497 kts | 161° |
| 2026-05-05 00:49 | 38.20981 | 30.21594 | 45000 ft | 497 kts | 161° |
| 2026-05-05 00:49 | 38.14464 | 30.24594 | 45002 ft | 498 kts | 161° |
| 2026-05-05 00:50 | 38.07941 | 30.27577 | 44998 ft | 498 kts | 161° |
| 2026-05-05 00:50 | 38.01451 | 30.30549 | 45000 ft | 497 kts | 161° |
| 2026-05-05 00:51 | 37.94934 | 30.33504 | 44995 ft | 495 kts | 161° |
| 2026-05-05 00:51 | 37.88457 | 30.36437 | 44995 ft | 493 kts | 161° |
| 2026-05-05 00:52 | 37.82002 | 30.39355 | 44993 ft | 492 kts | 161° |
| 2026-05-05 00:52 | 37.75602 | 30.42242 | 44992 ft | 492 kts | 161° |
| 2026-05-05 00:53 | 37.69138 | 30.45154 | 44996 ft | 494 kts | 161° |
| 2026-05-05 00:53 | 37.62647 | 30.48071 | 44995 ft | 496 kts | 161° |
| 2026-05-05 00:54 | 37.56133 | 30.50994 | 44998 ft | 498 kts | 161° |
| 2026-05-05 00:54 | 37.49607 | 30.53916 | 44988 ft | 498 kts | 161° |
| 2026-05-05 00:55 | 37.43086 | 30.56831 | 44974 ft | 496 kts | 161° |
| 2026-05-05 00:55 | 37.36619 | 30.59716 | 44975 ft | 494 kts | 162° |
| 2026-05-05 00:56 | 37.30134 | 30.62605 | 44966 ft | 493 kts | 162° |
| 2026-05-05 00:56 | 37.23672 | 30.65477 | 44955 ft | 492 kts | 162° |
| 2026-05-05 00:57 | 37.17221 | 30.68340 | 44948 ft | 491 kts | 162° |
| 2026-05-05 00:57 | 37.10756 | 30.71203 | 44944 ft | 493 kts | 162° |
| 2026-05-05 00:58 | 37.04301 | 30.74058 | 44953 ft | 495 kts | 162° |
| 2026-05-05 00:58 | 36.97791 | 30.76930 | 44950 ft | 497 kts | 162° |
| 2026-05-05 00:59 | 36.91154 | 30.79284 | 44945 ft | 495 kts | 173° |
| 2026-05-05 00:59 | 36.84289 | 30.79712 | 44945 ft | 492 kts | 180° |
| 2026-05-05 01:00 | 36.77479 | 30.79957 | 44936 ft | 491 kts | 180° |
| 2026-05-05 01:00 | 36.70657 | 30.80189 | 44934 ft | 489 kts | 180° |
| 2026-05-05 01:01 | 36.63855 | 30.80426 | 44938 ft | 488 kts | 180° |
| 2026-05-05 01:01 | 36.57080 | 30.80660 | 44937 ft | 488 kts | 180° |
| 2026-05-05 01:02 | 36.50271 | 30.80895 | 44939 ft | 489 kts | 180° |
| 2026-05-05 01:02 | 36.43498 | 30.81128 | 44935 ft | 491 kts | 180° |
| 2026-05-05 01:03 | 36.36658 | 30.81359 | 44941 ft | 492 kts | 180° |
| 2026-05-05 01:03 | 36.29790 | 30.81587 | 44943 ft | 494 kts | 180° |
| 2026-05-05 01:04 | 36.22909 | 30.81818 | 44932 ft | 493 kts | 180° |
| 2026-05-05 01:04 | 36.12642 | 30.82159 | 44927 ft | 490 kts | 180° |
| 2026-05-05 01:05 | 36.05908 | 30.83353 | 44918 ft | 492 kts | 165° |
| 2026-05-05 01:05 | 35.99732 | 30.86885 | 44930 ft | 496 kts | 148° |
| 2026-05-05 01:06 | 35.94251 | 30.92135 | 44921 ft | 501 kts | 143° |
| 2026-05-05 01:06 | 35.89717 | 30.96603 | 44921 ft | 503 kts | 143° |
| 2026-05-05 01:07 | 35.84236 | 31.01996 | 44924 ft | 505 kts | 143° |
| 2026-05-05 01:07 | 35.78750 | 31.07386 | 44925 ft | 503 kts | 143° |
| 2026-05-05 01:08 | 35.73277 | 31.12752 | 44908 ft | 502 kts | 143° |
| 2026-05-05 01:08 | 35.67827 | 31.18086 | 44908 ft | 499 kts | 143° |
| 2026-05-05 01:09 | 35.62390 | 31.23399 | 44905 ft | 498 kts | 143° |
| 2026-05-05 01:09 | 35.56999 | 31.28656 | 44904 ft | 498 kts | 143° |
| 2026-05-05 01:10 | 35.51562 | 31.33949 | 44907 ft | 499 kts | 143° |
| 2026-05-05 01:10 | 35.46099 | 31.39258 | 44905 ft | 501 kts | 143° |
| 2026-05-05 01:11 | 35.40615 | 31.44578 | 44905 ft | 503 kts | 143° |
| 2026-05-05 01:11 | 35.35114 | 31.49906 | 44907 ft | 504 kts | 143° |
| 2026-05-05 01:12 | 35.29651 | 31.55187 | 44905 ft | 503 kts | 143° |
| 2026-05-05 01:12 | 35.24163 | 31.60483 | 44903 ft | 501 kts | 144° |
| 2026-05-05 01:13 | 35.18693 | 31.65751 | 44900 ft | 499 kts | 144° |
| 2026-05-05 01:13 | 35.13233 | 31.71001 | 44898 ft | 497 kts | 144° |
| 2026-05-05 01:14 | 35.07828 | 31.76189 | 44896 ft | 497 kts | 144° |
| 2026-05-05 01:14 | 35.02375 | 31.81414 | 44895 ft | 499 kts | 144° |
| 2026-05-05 01:15 | 34.96900 | 31.86651 | 44897 ft | 500 kts | 144° |
| 2026-05-05 01:15 | 34.91416 | 31.91887 | 44895 ft | 502 kts | 144° |
| 2026-05-05 01:16 | 34.85901 | 31.97144 | 44895 ft | 503 kts | 144° |
| 2026-05-05 01:16 | 34.80393 | 32.02385 | 44894 ft | 501 kts | 144° |
| 2026-05-05 01:17 | 34.74916 | 32.07588 | 44891 ft | 499 kts | 144° |
| 2026-05-05 01:17 | 34.69489 | 32.12734 | 44888 ft | 496 kts | 144° |
| 2026-05-05 01:18 | 34.64051 | 32.17881 | 44885 ft | 495 kts | 144° |
| 2026-05-05 01:18 | 34.58604 | 32.23029 | 44887 ft | 496 kts | 144° |
| 2026-05-05 01:19 | 34.53142 | 32.28181 | 44889 ft | 498 kts | 144° |
| 2026-05-05 01:19 | 34.47662 | 32.33342 | 44892 ft | 499 kts | 144° |
| 2026-05-05 01:20 | 34.42165 | 32.38511 | 44894 ft | 501 kts | 144° |
| 2026-05-05 01:20 | 34.36651 | 32.43685 | 44896 ft | 502 kts | 144° |
| 2026-05-05 01:21 | 34.31169 | 32.48822 | 44897 ft | 500 kts | 145° |
| 2026-05-05 01:21 | 34.25674 | 32.53961 | 44893 ft | 498 kts | 145° |
| 2026-05-05 01:22 | 34.20198 | 32.59075 | 44890 ft | 497 kts | 145° |
| 2026-05-05 01:22 | 34.14737 | 32.64166 | 44888 ft | 495 kts | 145° |
| 2026-05-05 01:23 | 34.09288 | 32.69234 | 44886 ft | 494 kts | 146° |
| 2026-05-05 01:23 | 34.03497 | 32.73683 | 44890 ft | 494 kts | 151° |
| 2026-05-05 01:24 | 33.97647 | 32.78070 | 44895 ft | 496 kts | 151° |
| 2026-05-05 01:24 | 33.91755 | 32.82442 | 44900 ft | 498 kts | 151° |
| 2026-05-05 01:25 | 33.85855 | 32.86834 | 44901 ft | 498 kts | 151° |
| 2026-05-05 01:25 | 33.80010 | 32.91167 | 44897 ft | 496 kts | 151° |
| 2026-05-05 01:26 | 33.74150 | 32.95508 | 44895 ft | 494 kts | 151° |
| 2026-05-05 01:26 | 33.68311 | 32.99825 | 44900 ft | 492 kts | 152° |
| 2026-05-05 01:27 | 33.62483 | 33.04128 | 44897 ft | 491 kts | 152° |
| 2026-05-05 01:27 | 33.56657 | 33.08423 | 44914 ft | 493 kts | 152° |
| 2026-05-05 01:28 | 33.50801 | 33.12732 | 44915 ft | 495 kts | 152° |
| 2026-05-05 01:28 | 33.44905 | 33.17064 | 44918 ft | 497 kts | 152° |
| 2026-05-05 01:29 | 33.39002 | 33.21394 | 44921 ft | 498 kts | 152° |
| 2026-05-05 01:29 | 33.33136 | 33.25691 | 44916 ft | 496 kts | 152° |
| 2026-05-05 01:30 | 33.27262 | 33.29985 | 44923 ft | 494 kts | 152° |
| 2026-05-05 01:30 | 33.21404 | 33.34262 | 44927 ft | 492 kts | 152° |
| 2026-05-05 01:31 | 33.15565 | 33.38517 | 44941 ft | 491 kts | 152° |
| 2026-05-05 01:31 | 33.09755 | 33.42745 | 44939 ft | 493 kts | 152° |
| 2026-05-05 01:32 | 33.03889 | 33.47008 | 44946 ft | 495 kts | 152° |
| 2026-05-05 01:32 | 32.97991 | 33.51285 | 44949 ft | 496 kts | 152° |
| 2026-05-05 01:33 | 32.92086 | 33.55563 | 44959 ft | 498 kts | 152° |
| 2026-05-05 01:33 | 32.86187 | 33.59885 | 44949 ft | 499 kts | 148° |
| 2026-05-05 01:34 | 32.81104 | 33.65542 | 44973 ft | 505 kts | 133° |
| 2026-05-05 01:34 | 32.76621 | 33.71953 | 44983 ft | 504 kts | 133° |
| 2026-05-05 01:35 | 32.72163 | 33.78363 | 44982 ft | 502 kts | 133° |
| 2026-05-05 01:35 | 32.67702 | 33.84742 | 44980 ft | 502 kts | 133° |
| 2026-05-05 01:36 | 32.63270 | 33.91080 | 44983 ft | 503 kts | 133° |
| 2026-05-05 01:36 | 32.58759 | 33.97514 | 44987 ft | 505 kts | 133° |
| 2026-05-05 01:37 | 32.54250 | 34.03937 | 44988 ft | 507 kts | 133° |
| 2026-05-05 01:37 | 32.49722 | 34.10375 | 44992 ft | 509 kts | 133° |
| 2026-05-05 01:38 | 32.45192 | 34.16806 | 44991 ft | 508 kts | 133° |
| 2026-05-05 01:38 | 32.40702 | 34.23168 | 44989 ft | 506 kts | 133° |
| 2026-05-05 01:39 | 32.36197 | 34.29541 | 44988 ft | 504 kts | 133° |
| 2026-05-05 01:39 | 32.31704 | 34.35886 | 44989 ft | 502 kts | 133° |
| 2026-05-05 01:40 | 32.27215 | 34.42213 | 44991 ft | 503 kts | 133° |
| 2026-05-05 01:40 | 32.22708 | 34.48557 | 44995 ft | 505 kts | 133° |
| 2026-05-05 01:41 | 32.18404 | 34.55145 | 44997 ft | 511 kts | 124° |
| 2026-05-05 01:41 | 32.15620 | 34.62919 | 44994 ft | 520 kts | 107° |
| 2026-05-05 01:42 | 32.14191 | 34.71308 | 45000 ft | 521 kts | 103° |
| 2026-05-05 01:42 | 32.12796 | 34.79687 | 44998 ft | 519 kts | 103° |
| 2026-05-05 01:43 | 32.11408 | 34.88035 | 44997 ft | 518 kts | 103° |
| 2026-05-05 01:43 | 32.09343 | 34.96100 | 44994 ft | 513 kts | 111° |
| 2026-05-05 01:44 | 32.08213 | 35.00039 | 44767 ft | 501 kts | 111° |
| 2026-05-05 01:44 | 32.07107 | 35.03941 | 43772 ft | 503 kts | 111° |
| 2026-05-05 01:44 | 32.05987 | 35.07847 | 42824 ft | 503 kts | 112° |
| 2026-05-05 01:44 | 32.04859 | 35.11745 | 41863 ft | 502 kts | 112° |
| 2026-05-05 01:45 | 32.03736 | 35.15637 | 40894 ft | 501 kts | 112° |
| 2026-05-05 01:45 | 32.02620 | 35.19522 | 39887 ft | 500 kts | 112° |
| 2026-05-05 01:45 | 32.01495 | 35.23395 | 38820 ft | 499 kts | 112° |
| 2026-05-05 01:45 | 32.00361 | 35.27251 | 37678 ft | 499 kts | 112° |
| 2026-05-05 01:46 | 31.99245 | 35.31117 | 36524 ft | 497 kts | 112° |
| 2026-05-05 01:46 | 31.98153 | 35.34977 | 35250 ft | 496 kts | 112° |
| 2026-05-05 01:46 | 31.97046 | 35.38843 | 33652 ft | 501 kts | 112° |
| 2026-05-05 01:46 | 31.95907 | 35.42752 | 31948 ft | 506 kts | 112° |
| 2026-05-05 01:47 | 31.94768 | 35.46677 | 30300 ft | 506 kts | 112° |
| 2026-05-05 01:47 | 31.93661 | 35.50616 | 28686 ft | 507 kts | 108° |
| 2026-05-05 01:47 | 31.93130 | 35.54579 | 28070 ft | 484 kts | 102° |
| 2026-05-05 01:47 | 31.92194 | 35.58282 | 27748 ft | 451 kts | 115° |
| 2026-05-05 01:48 | 31.90874 | 35.61487 | 27654 ft | 420 kts | 122° |
| 2026-05-05 01:48 | 31.89489 | 35.64384 | 27643 ft | 393 kts | 123° |
| 2026-05-05 01:48 | 31.88220 | 35.67177 | 27145 ft | 386 kts | 120° |
| 2026-05-05 01:48 | 31.87163 | 35.70057 | 26315 ft | 377 kts | 116° |
| 2026-05-05 01:49 | 31.86189 | 35.72908 | 24835 ft | 375 kts | 117° |
| 2026-05-05 01:49 | 31.85150 | 35.75644 | 23597 ft | 367 kts | 119° |
| 2026-05-05 01:49 | 31.84073 | 35.78332 | 22323 ft | 360 kts | 119° |
| 2026-05-05 01:49 | 31.83052 | 35.80995 | 21095 ft | 354 kts | 116° |
| 2026-05-05 01:50 | 31.82370 | 35.83760 | 19857 ft | 352 kts | 103° |
| 2026-05-05 01:50 | 31.82161 | 35.86600 | 18678 ft | 347 kts | 91° |
| 2026-05-05 01:50 | 31.82388 | 35.89401 | 17503 ft | 341 kts | 83° |
| 2026-05-05 01:50 | 31.82714 | 35.92135 | 16357 ft | 335 kts | 83° |
| 2026-05-05 01:51 | 31.83013 | 35.94820 | 15236 ft | 328 kts | 84° |
| 2026-05-05 01:51 | 31.83298 | 35.97449 | 14131 ft | 321 kts | 84° |
| 2026-05-05 01:51 | 31.83584 | 36.00019 | 13023 ft | 314 kts | 84° |
| 2026-05-05 01:51 | 31.83864 | 36.02534 | 11952 ft | 307 kts | 84° |
| 2026-05-05 01:52 | 31.84138 | 36.05001 | 10893 ft | 301 kts | 84° |
| 2026-05-05 01:52 | 31.84398 | 36.07367 | 10471 ft | 280 kts | 83° |
| 2026-05-05 01:52 | 31.84652 | 36.09686 | 10143 ft | 294 kts | 83° |
| 2026-05-05 01:52 | 31.84920 | 36.12117 | 9757 ft | 303 kts | 83° |
| 2026-05-05 01:53 | 31.85197 | 36.14572 | 9349 ft | 301 kts | 83° |
| 2026-05-05 01:53 | 31.85458 | 36.16989 | 8949 ft | 295 kts | 83° |
| 2026-05-05 01:53 | 31.85689 | 36.19337 | 8550 ft | 281 kts | 86° |
| 2026-05-05 01:53 | 31.85589 | 36.20821 | 8295 ft | 271 kts | 104° |
| 2026-05-05 01:54 | 31.84863 | 36.22780 | 7962 ft | 255 kts | 126° |
| 2026-05-05 01:54 | 31.83193 | 36.24571 | 7527 ft | 236 kts | 154° |
| 2026-05-05 01:54 | 31.82207 | 36.25053 | 7322 ft | 228 kts | 167° |
| 2026-05-05 01:54 | 31.80677 | 36.25280 | 7025 ft | 218 kts | 186° |
| 2026-05-05 01:55 | 31.79216 | 36.24952 | 6739 ft | 212 kts | 203° |
| 2026-05-05 01:55 | 31.77933 | 36.24143 | 6450 ft | 209 kts | 220° |
| 2026-05-05 01:55 | 31.76922 | 36.22938 | 6186 ft | 207 kts | 236° |
| 2026-05-05 01:55 | 31.76267 | 36.21473 | 5949 ft | 193 kts | 251° |
| 2026-05-05 01:56 | 31.75995 | 36.20026 | 5662 ft | 173 kts | 262° |
| 2026-05-05 01:56 | 31.75800 | 36.18645 | 5468 ft | 165 kts | 260° |
| 2026-05-05 01:56 | 31.75611 | 36.17366 | 5205 ft | 152 kts | 261° |
| 2026-05-05 01:56 | 31.75444 | 36.16187 | 4981 ft | 142 kts | 261° |
| 2026-05-05 01:57 | 31.75281 | 36.15051 | 4799 ft | 141 kts | 260° |
| 2026-05-05 01:57 | 31.75120 | 36.13916 | 4617 ft | 139 kts | 260° |
| 2026-05-05 01:57 | 31.74965 | 36.12836 | 4430 ft | 129 kts | 260° |
| 2026-05-05 01:57 | 31.74816 | 36.11819 | 4254 ft | 123 kts | 260° |
| 2026-05-05 01:58 | 31.74676 | 36.10838 | 4100 ft | 121 kts | 260° |
| 2026-05-05 01:58 | 31.74535 | 36.09859 | 3949 ft | 123 kts | 260° |
| 2026-05-05 01:58 | 31.74389 | 36.08868 | 3788 ft | 123 kts | 259° |
| 2026-05-05 01:58 | 31.74247 | 36.07872 | 3624 ft | 124 kts | 260° |
| 2026-05-05 01:59 | 31.74107 | 36.06881 | 3464 ft | 126 kts | 260° |
| 2026-05-05 01:59 | 31.73957 | 36.05861 | 3288 ft | 124 kts | 259° |
| 2026-05-05 01:59 | 31.73814 | 36.04877 | 3122 ft | 122 kts | 259° |
| 2026-05-05 01:59 | 31.73673 | 36.03897 | 2961 ft | 122 kts | 259° |
| 2026-05-05 02:00 | 31.73529 | 36.02907 | 2800 ft | 123 kts | 260° |
| 2026-05-05 02:00 | 31.73396 | 36.01918 | 2639 ft | 122 kts | 259° |
| 2026-05-05 02:00 | 31.73256 | 36.00960 | 2480 ft | 118 kts | 259° |
| 2026-05-05 02:00 | 31.73124 | 36.00063 | 2414 ft | 96 kts | 261° |
| 2026-05-05 02:01 | 31.73036 | 35.99457 | 2412 ft | 61 kts | 260° |
| 2026-05-05 02:01 | 31.72981 | 35.99059 | 2413 ft | 35 kts | 257° |
| 2026-05-05 02:01 | 31.72945 | 35.98856 | 2414 ft | 0 kts | 245° |
| 2026-05-05 02:01 | 31.72929 | 35.98858 | 2414 ft | 4 kts | 135° |
| 2026-05-05 02:02 | 31.72914 | 35.98900 | 2414 ft | 7 kts | 106° |
| 2026-05-05 02:02 | 31.72893 | 35.98973 | 2413 ft | 11 kts | 110° |
| 2026-05-05 02:02 | 31.72858 | 35.99073 | 2412 ft | 15 kts | 112° |
| 2026-05-05 02:02 | 31.72817 | 35.99199 | 2412 ft | 18 kts | 113° |
| 2026-05-05 02:03 | 31.72768 | 35.99333 | 2412 ft | 15 kts | 120° |
| 2026-05-05 02:03 | 31.72671 | 35.99378 | 2412 ft | 17 kts | 171° |
| 2026-05-05 02:03 | 31.72576 | 35.99369 | 2412 ft | 12 kts | 220° |
| 2026-05-05 02:03 | 31.72540 | 35.99232 | 2412 ft | 26 kts | 261° |
| 2026-05-05 02:04 | 31.72507 | 35.99107 | 2412 ft | 8 kts | 193° |
| 2026-05-05 02:04 | 31.72475 | 35.99102 | 2412 ft | 0 kts | 188° |